»·PEaware :: SWA3035 KPHX-KABQ

SWA3035 :: KPHX-KABQ

FLIGHT INFORMATION

Flight Status: Arrived
Operator:
Southwest Airlines
More flights by this operator :: More flights under this callsign
Pilot: Anonymous 5545 (5545)
Aircraft: BOEING 737-700
(B737)
More flights by this aircraft type
Origin: KPHX Phoenix Sky Harbor Intl
United States
Destination: KABQ Albuquerque Intl Sunport
United States
More flights between these airports :: More routes between these airports
Route: FORPE1 FORPE TMALE BRRTO1
File this flight plan on PilotEdge
Remarks:
Altitude:
(Current/Filed)
35,000ft
Speed:
(Current/Filed)
428kts
Departed: 09-Jan-22 08:06 PM
Arrived: 09-Jan-22 08:54 PM
Distance/Time
Traveled:
285nm/0:47
Distance/Time
To Go:
Arrived

Flight Plot

Page will automatically refresh every two minutes.

Flight plan parsing failed; only flown route is shown


Map Options




Map Legend


Flown Route
Filed Route
Departure Airport
Arrival Airport
Navaid (VOR, NDB)
Fix

Horizontal Profiles

Position Reports

Time Latitude Longitude Heading Altitude Ground
Speed
09-Jan-22 19:33 33.433469 -111.993964 345 1129ft 0kts
09-Jan-22 19:34 33.433469 -111.993964 345 1129ft 0kts
09-Jan-22 19:35 33.433469 -111.993964 345 1129ft 0kts
09-Jan-22 19:36 33.433469 -111.993964 345 1129ft 0kts
09-Jan-22 19:37 33.433469 -111.993964 345 1129ft 0kts
09-Jan-22 19:38 33.433469 -111.993964 345 1129ft 0kts
09-Jan-22 19:39 33.433469 -111.993964 345 1129ft 0kts
09-Jan-22 19:40 33.433469 -111.993964 345 1129ft 0kts
09-Jan-22 19:41 33.433469 -111.993964 345 1129ft 0kts
09-Jan-22 19:42 33.433469 -111.993964 345 1129ft 0kts
09-Jan-22 19:43 33.433469 -111.993964 345 1129ft 0kts
09-Jan-22 19:44 33.433469 -111.993964 345 1129ft 0kts
09-Jan-22 19:45 33.433469 -111.993964 345 1129ft 0kts
09-Jan-22 19:46 33.433469 -111.993964 345 1129ft 0kts
09-Jan-22 19:47 33.433469 -111.993964 345 1129ft 0kts
09-Jan-22 19:48 33.433469 -111.993964 345 1129ft 0kts
09-Jan-22 19:49 33.433469 -111.993964 345 1129ft 0kts
09-Jan-22 19:50 33.433469 -111.993964 345 1129ft 0kts
09-Jan-22 19:51 33.433469 -111.993964 345 1129ft 0kts
09-Jan-22 19:52 33.433469 -111.993964 345 1129ft 0kts
09-Jan-22 19:53 33.433468 -111.993964 345 1129ft 0kts
09-Jan-22 19:54 33.432936 -111.993930 39 1129ft 1kts
09-Jan-22 19:55 33.432819 -111.994263 90 1129ft 0kts
09-Jan-22 19:56 33.432819 -111.994263 90 1129ft 0kts
09-Jan-22 19:57 33.432819 -111.994263 90 1129ft 0kts
09-Jan-22 19:58 33.432837 -111.995834 270 1128ft 12kts
09-Jan-22 19:59 33.432839 -112.001870 269 1129ft 19kts
09-Jan-22 20:00 33.432886 -112.008797 270 1129ft 24kts
09-Jan-22 20:01 33.432882 -112.017362 269 1123ft 24kts
09-Jan-22 20:02 33.432887 -112.024544 270 1119ft 17kts
09-Jan-22 20:03 33.432025 -112.026975 182 1118ft 0kts
09-Jan-22 20:04 33.431054 -112.025550 89 1119ft 20kts
09-Jan-22 20:05 33.431021 -111.982528 90 2615ft 164kts
09-Jan-22 20:06 33.433471 -111.933198 83 3958ft 239kts
09-Jan-22 20:07 33.447124 -111.850584 60 7532ft 267kts
09-Jan-22 20:08 33.483419 -111.770184 64 10626ft 300kts
09-Jan-22 20:09 33.521471 -111.674240 63 13690ft 329kts
09-Jan-22 20:10 33.562401 -111.574382 62 16902ft 341kts
09-Jan-22 20:11 33.604988 -111.470683 61 19759ft 355kts
09-Jan-22 20:12 33.649178 -111.362915 61 22281ft 369kts
09-Jan-22 20:13 33.694337 -111.251017 64 24548ft 383kts
09-Jan-22 20:14 33.736903 -111.130457 65 26459ft 401kts
09-Jan-22 20:15 33.781512 -111.004672 65 28160ft 419kts
09-Jan-22 20:16 33.828135 -110.873124 65 29689ft 436kts
09-Jan-22 20:17 33.875992 -110.737604 65 31399ft 443kts
09-Jan-22 20:18 33.923948 -110.601263 65 33059ft 445kts
09-Jan-22 20:19 33.971875 -110.464414 65 34532ft 446kts
09-Jan-22 20:20 34.019875 -110.326758 66 35530ft 448kts
09-Jan-22 20:21 34.064990 -110.187543 73 35550ft 446kts
09-Jan-22 20:22 34.098642 -110.043164 73 35554ft 448kts
09-Jan-22 20:23 34.131988 -109.898853 73 35555ft 447kts
09-Jan-22 20:24 34.165286 -109.754095 73 35553ft 448kts
09-Jan-22 20:25 34.198358 -109.609512 73 35551ft 446kts
09-Jan-22 20:26 34.231096 -109.465570 73 35553ft 445kts
09-Jan-22 20:27 34.263597 -109.321844 74 35554ft 443kts
09-Jan-22 20:28 34.295898 -109.178273 74 35552ft 443kts
09-Jan-22 20:29 34.328000 -109.034645 74 35551ft 444kts
09-Jan-22 20:30 34.360000 -108.890577 74 35551ft 444kts
09-Jan-22 20:31 34.391908 -108.746042 74 35556ft 447kts
09-Jan-22 20:32 34.424599 -108.600282 72 35564ft 449kts
09-Jan-22 20:33 34.461314 -108.455539 72 35569ft 451kts
09-Jan-22 20:34 34.497077 -108.313283 72 33271ft 444kts
09-Jan-22 20:35 34.532085 -108.173068 72 30998ft 433kts
09-Jan-22 20:36 34.565547 -108.038120 72 28949ft 409kts
09-Jan-22 20:37 34.597017 -107.910455 72 26981ft 385kts
09-Jan-22 20:38 34.630807 -107.792656 63 25121ft 357kts
09-Jan-22 20:39 34.674582 -107.687070 61 23337ft 338kts
09-Jan-22 20:40 34.717997 -107.585551 61 21627ft 339kts
09-Jan-22 20:41 34.760251 -107.486973 60 19911ft 320kts
09-Jan-22 20:42 34.801423 -107.390751 60 18233ft 324kts
09-Jan-22 20:43 34.841889 -107.295884 61 16053ft 314kts
09-Jan-22 20:44 34.880373 -107.203238 61 14413ft 298kts
09-Jan-22 20:45 34.917545 -107.114455 61 12424ft 279kts
09-Jan-22 20:46 34.952482 -107.032466 62 9450ft 271kts
09-Jan-22 20:47 34.984061 -106.954461 63 8326ft 252kts
09-Jan-22 20:48 35.013774 -106.880088 63 8187ft 221kts
09-Jan-22 20:49 35.038636 -106.812057 67 8122ft 201kts
09-Jan-22 20:50 35.045471 -106.746621 89 7436ft 196kts
09-Jan-22 20:51 35.044831 -106.681029 88 6366ft 192kts
09-Jan-22 20:52 35.044267 -106.627751 86 5443ft 138kts
09-Jan-22 20:53 35.044791 -106.597177 62 5328ft 26kts
09-Jan-22 20:54 35.045864 -106.598915 269 5328ft 15kts
09-Jan-22 20:55 35.045764 -106.605354 270 5325ft 17kts
09-Jan-22 20:56 35.045818 -106.612134 271 5322ft 22kts
09-Jan-22 20:57 35.048119 -106.614168 210 5322ft 8kts

Navigation Log

Ident Type
Flight plan parsing failed, navigation log unavailable